createdAt,value
2018-09-04T00:01:29.576Z,45.63
2018-09-04T00:03:57.992Z,45.67
2018-09-04T00:06:26.442Z,46.13
2018-09-04T00:08:54.843Z,46.80
2018-09-04T00:11:23.294Z,46.93
2018-09-04T00:13:51.665Z,47.50
2018-09-04T00:16:20.145Z,46.67
2018-09-04T00:18:48.584Z,47.23
2018-09-04T00:21:17.064Z,43.77
2018-09-04T00:23:45.458Z,44.57
2018-09-04T00:26:13.896Z,45.73
2018-09-04T00:28:43.372Z,45.00
2018-09-04T00:31:11.780Z,43.80
2018-09-04T00:33:40.151Z,45.70
2018-09-04T00:36:09.229Z,44.47
2018-09-04T00:38:37.634Z,43.80
2018-09-04T00:41:06.186Z,42.57
2018-09-04T00:43:34.640Z,45.80
2018-09-04T00:46:04.040Z,45.63
2018-09-04T00:48:32.440Z,42.87
2018-09-04T00:51:00.926Z,45.67
2018-09-04T00:53:29.552Z,45.70
2018-09-04T00:55:57.976Z,44.60
2018-09-04T00:58:26.449Z,42.40
2018-09-04T01:00:55.428Z,44.53
2018-09-04T01:03:24.326Z,43.73
2018-09-04T01:05:52.748Z,43.33
2018-09-04T01:08:21.094Z,44.33
2018-09-04T01:10:49.558Z,45.50
2018-09-04T01:13:17.968Z,45.53
2018-09-04T01:15:46.355Z,46.90
2018-09-04T01:18:14.739Z,45.07
2018-09-04T01:20:43.251Z,46.67
2018-09-04T01:23:11.597Z,45.70
2018-09-04T01:25:40.002Z,44.03
2018-09-04T01:28:09.284Z,46.17
2018-09-04T01:30:38.026Z,46.90
2018-09-04T01:33:06.508Z,45.40
2018-09-04T01:35:34.921Z,47.93
2018-09-04T01:38:03.321Z,48.13
2018-09-04T01:40:31.727Z,47.33
2018-09-04T01:43:00.140Z,50.07
2018-09-04T01:45:28.504Z,50.53
2018-09-04T01:47:56.921Z,47.67
2018-09-04T01:50:25.288Z,47.80
2018-09-04T01:52:53.729Z,50.00
2018-09-04T01:55:22.137Z,49.90
2018-09-04T01:57:50.646Z,49.23
2018-09-04T02:00:19.347Z,51.60
2018-09-04T02:02:47.717Z,51.13
2018-09-04T02:05:16.309Z,53.60
2018-09-04T02:07:45.401Z,52.03
2018-09-04T02:10:13.809Z,52.70
2018-09-04T02:12:42.166Z,52.27
2018-09-04T02:15:10.532Z,53.93
2018-09-04T02:17:38.923Z,53.97
2018-09-04T02:20:07.303Z,53.37
2018-09-04T02:22:35.692Z,52.23
2018-09-04T02:25:04.096Z,56.40
2018-09-04T02:27:32.478Z,53.77
2018-09-04T02:30:00.913Z,55.83
2018-09-04T02:32:29.942Z,55.13
2018-09-04T02:34:58.757Z,53.20
2018-09-04T02:37:27.541Z,55.87
2018-09-04T02:39:56.421Z,56.03
2018-09-04T02:42:25.033Z,55.00
2018-09-04T02:44:53.809Z,56.03
2018-09-04T02:47:22.783Z,56.90
2018-09-04T02:49:51.215Z,58.57
2018-09-04T02:52:19.726Z,58.37
2018-09-04T02:54:48.296Z,55.30
2018-09-04T02:57:17.172Z,55.67
2018-09-04T02:59:45.560Z,57.13
2018-09-04T03:02:14.055Z,57.67
2018-09-04T03:04:43.101Z,56.43
2018-09-04T03:07:12.095Z,56.30
2018-09-04T03:09:40.660Z,54.40
2018-09-04T03:12:09.069Z,56.60
2018-09-04T03:14:37.495Z,58.63
2018-09-04T03:17:05.990Z,58.20
2018-09-04T03:19:34.419Z,58.80
2018-09-04T03:22:02.837Z,59.33
2018-09-04T03:24:31.320Z,59.40
2018-09-04T03:26:59.729Z,58.27
2018-09-04T03:29:28.224Z,58.70
2018-09-04T03:31:56.661Z,57.77
2018-09-04T03:34:25.161Z,59.20
2018-09-04T03:36:53.979Z,59.67
2018-09-04T03:39:22.371Z,58.47
2018-09-04T03:41:50.779Z,58.73
2018-09-04T03:44:19.219Z,57.33
2018-09-04T03:46:47.621Z,58.93
2018-09-04T03:49:16.044Z,56.23
2018-09-04T03:51:44.468Z,57.30
2018-09-04T03:54:12.848Z,59.10
2018-09-04T03:56:41.273Z,58.17
2018-09-04T03:59:09.717Z,59.20
2018-09-04T04:01:38.153Z,56.60
2018-09-04T04:04:06.883Z,59.00
2018-09-04T04:06:35.596Z,58.70
2018-09-04T04:09:04.879Z,58.03
2018-09-04T04:11:33.219Z,59.43
2018-09-04T04:14:01.592Z,58.83
2018-09-04T04:16:30.271Z,60.07
2018-09-04T04:18:58.707Z,58.23
2018-09-04T04:21:27.099Z,57.80
2018-09-04T04:23:55.497Z,56.53
2018-09-04T04:26:23.932Z,56.90
2018-09-04T04:28:52.545Z,57.80
2018-09-04T04:31:20.940Z,56.97
2018-09-04T04:33:49.442Z,58.23
2018-09-04T04:36:18.223Z,55.40
2018-09-04T04:38:46.607Z,59.47
2018-09-04T04:41:15.017Z,54.23
2018-09-04T04:43:43.374Z,56.70
2018-09-04T04:46:11.912Z,55.73
2018-09-04T04:48:40.356Z,57.87
2018-09-04T04:51:08.726Z,54.67
2018-09-04T04:53:37.433Z,54.10
2018-09-04T04:56:05.896Z,52.17
2018-09-04T04:58:34.317Z,55.37
2018-09-04T05:01:02.827Z,54.60
2018-09-04T05:03:31.256Z,55.10
2018-09-04T05:05:59.670Z,51.47
2018-09-04T05:08:28.074Z,53.20
2018-09-04T05:10:56.543Z,52.87
2018-09-04T05:13:25.007Z,53.27
2018-09-04T05:15:53.441Z,52.63
2018-09-04T05:18:21.850Z,52.43
2018-09-04T05:20:50.248Z,53.40
2018-09-04T05:23:18.689Z,51.67
2018-09-04T05:25:47.116Z,51.17
2018-09-04T05:28:15.533Z,51.67
2018-09-04T05:30:43.971Z,52.43
2018-09-04T05:33:16.523Z,52.30
2018-09-04T05:35:47.192Z,53.03
2018-09-04T05:38:15.613Z,52.10
2018-09-04T05:40:44.057Z,53.17
2018-09-04T05:43:16.239Z,51.43
2018-09-04T05:45:44.956Z,50.93
2018-09-04T05:48:15.137Z,51.37
2018-09-04T05:50:43.630Z,51.63
2018-09-04T05:53:12.089Z,53.20
2018-09-04T05:55:40.524Z,48.43
2018-09-04T05:58:09.056Z,51.23
2018-09-04T06:00:43.602Z,50.30
2018-09-04T06:03:12.005Z,48.13
2018-09-04T06:05:40.352Z,50.07
2018-09-04T06:08:08.800Z,47.30
2018-09-04T06:10:37.197Z,48.50
2018-09-04T06:13:05.635Z,48.63
2018-09-04T06:15:34.039Z,50.37
2018-09-04T06:18:02.497Z,50.57
2018-09-04T06:20:30.985Z,48.50
2018-09-04T06:22:59.437Z,47.43
2018-09-04T06:25:27.813Z,46.90
2018-09-04T06:27:56.436Z,48.73
2018-09-04T06:30:25.173Z,48.17
2018-09-04T06:32:54.034Z,50.50
2018-09-04T06:35:23.078Z,48.67
2018-09-04T06:37:51.844Z,47.60
2018-09-04T06:40:20.442Z,47.03
2018-09-04T06:42:48.904Z,48.83
2018-09-04T06:45:17.775Z,45.53
2018-09-04T06:47:47.387Z,47.27
2018-09-04T06:50:15.871Z,47.30
2018-09-04T06:52:44.918Z,47.77
2018-09-04T06:55:13.419Z,47.37
2018-09-04T06:57:41.898Z,48.07
2018-09-04T07:00:12.603Z,48.47
2018-09-04T07:02:41.070Z,48.67
2018-09-04T07:05:10.476Z,47.17
2018-09-04T07:07:38.862Z,47.23
2018-09-04T07:10:07.533Z,48.93
2018-09-04T07:12:35.971Z,49.73
2018-09-04T07:15:04.552Z,49.97
2018-09-04T07:17:32.922Z,48.30
2018-09-04T07:20:01.305Z,49.23
2018-09-04T07:22:29.762Z,46.43
2018-09-04T07:24:58.119Z,48.97
2018-09-04T07:27:26.534Z,47.77
2018-09-04T07:29:54.887Z,47.90
2018-09-04T07:32:23.331Z,46.93
2018-09-04T07:34:51.698Z,47.67
2018-09-04T07:37:20.432Z,45.97
2018-09-04T07:39:48.876Z,47.17
2018-09-04T07:42:17.335Z,47.47
2018-09-04T07:44:45.880Z,44.67
2018-09-04T07:47:14.202Z,45.83
2018-09-04T07:49:42.583Z,46.10
2018-09-04T07:52:10.957Z,46.13
2018-09-04T07:54:39.347Z,45.07
2018-09-04T07:57:07.916Z,47.17
2018-09-04T07:59:36.300Z,47.07
2018-09-04T08:02:04.722Z,47.17
2018-09-04T08:04:33.058Z,47.60
2018-09-04T08:07:01.439Z,45.83
2018-09-04T08:09:29.797Z,46.60
2018-09-04T08:11:58.211Z,46.10
2018-09-04T08:14:27.392Z,46.00
2018-09-04T08:16:55.831Z,47.47
2018-09-04T08:19:24.255Z,45.23
2018-09-04T08:21:52.686Z,44.37
2018-09-04T08:24:21.045Z,44.20
2018-09-04T08:26:49.430Z,41.43
2018-09-04T08:29:19.079Z,44.70
2018-09-04T08:31:47.475Z,44.30
2018-09-04T08:34:15.853Z,43.03
2018-09-04T08:36:44.268Z,42.87
2018-09-04T08:39:12.656Z,43.90
2018-09-04T08:41:41.021Z,43.60
2018-09-04T08:44:09.705Z,45.33
2018-09-04T08:46:38.100Z,44.40
2018-09-04T08:49:06.485Z,44.47
2018-09-04T08:51:35.234Z,46.57
2018-09-04T08:54:03.624Z,44.93
2018-09-04T08:56:32.745Z,43.17
2018-09-04T08:59:01.131Z,43.43
2018-09-04T09:01:29.612Z,44.53
2018-09-04T09:03:58.309Z,43.17
2018-09-04T09:06:26.748Z,44.27
2018-09-04T09:08:55.198Z,45.20
2018-09-04T09:11:23.699Z,46.17
2018-09-04T09:13:52.133Z,43.83
2018-09-04T09:16:20.636Z,45.23
2018-09-04T09:18:49.069Z,45.70
2018-09-04T09:21:17.464Z,45.87
2018-09-04T09:23:45.856Z,46.57
2018-09-04T09:26:14.268Z,46.83
2018-09-04T09:28:43.265Z,49.73
2018-09-04T09:31:11.775Z,47.50
2018-09-04T09:33:40.204Z,45.37
2018-09-04T09:36:08.663Z,44.23
2018-09-04T09:38:37.413Z,45.77
2018-09-04T09:41:05.898Z,45.97
2018-09-04T09:43:34.318Z,45.40
2018-09-04T09:46:02.778Z,44.90
2018-09-04T09:48:36.918Z,44.67
2018-09-04T09:51:05.438Z,45.93
2018-09-04T09:53:34.189Z,47.83
2018-09-04T09:56:02.353Z,46.63
2018-09-04T09:58:30.739Z,46.37
2018-09-04T10:01:04.580Z,46.20
2018-09-04T10:03:38.464Z,45.23
2018-09-04T10:06:06.877Z,43.33
2018-09-04T10:08:35.227Z,44.03
2018-09-04T10:11:03.600Z,45.43
2018-09-04T10:13:31.989Z,43.43
2018-09-04T10:16:00.372Z,45.13
2018-09-04T10:18:28.709Z,47.50
2018-09-04T10:20:57.086Z,44.97
2018-09-04T10:23:25.460Z,46.00
2018-09-04T10:25:53.870Z,47.80
2018-09-04T10:28:22.345Z,45.30
2018-09-04T10:30:50.797Z,44.60
2018-09-04T10:33:19.171Z,46.53
2018-09-04T10:35:47.629Z,45.80
2018-09-04T10:38:16.068Z,46.17
2018-09-04T10:40:45.684Z,46.73
2018-09-04T10:43:14.071Z,45.13
2018-09-04T10:45:47.788Z,44.77
2018-09-04T10:48:20.409Z,43.37
2018-09-04T10:50:48.915Z,42.63
2018-09-04T10:53:17.345Z,43.43
2018-09-04T10:55:45.941Z,41.13
2018-09-04T10:58:14.202Z,43.23
2018-09-04T11:00:42.838Z,45.30
2018-09-04T11:03:11.313Z,42.93
2018-09-04T11:05:39.991Z,38.60
2018-09-04T11:08:08.418Z,38.70
2018-09-04T11:10:36.825Z,43.17
2018-09-04T11:13:05.831Z,44.43
2018-09-04T11:15:34.272Z,42.07
2018-09-04T11:18:02.657Z,42.47
2018-09-04T11:20:31.076Z,42.00
2018-09-04T11:22:59.735Z,41.00
2018-09-04T11:25:28.285Z,38.10
2018-09-04T11:27:56.741Z,42.10
2018-09-04T11:30:25.109Z,40.50
2018-09-04T11:32:53.517Z,37.47
2018-09-04T11:35:21.946Z,40.67
2018-09-04T11:37:51.003Z,36.83
2018-09-04T11:40:19.335Z,37.30
2018-09-04T11:42:47.921Z,37.10
2018-09-04T11:45:16.486Z,36.77
2018-09-04T11:47:44.895Z,37.60
2018-09-04T11:50:13.289Z,38.13
2018-09-04T11:52:42.033Z,37.03
2018-09-04T11:55:11.165Z,37.00
2018-09-04T11:57:39.773Z,36.33
2018-09-04T12:00:09.993Z,38.33
2018-09-04T12:02:39.704Z,38.77
2018-09-04T12:05:08.163Z,36.03
2018-09-04T12:07:36.953Z,35.57
2018-09-04T12:10:06.342Z,37.90
2018-09-04T12:12:35.680Z,35.50
2018-09-04T12:15:03.906Z,36.43
2018-09-04T12:17:32.345Z,35.87
2018-09-04T12:20:24.864Z,35.40
2018-09-04T12:22:53.440Z,34.20
2018-09-04T12:25:21.891Z,34.67
2018-09-04T12:27:50.335Z,34.57
2018-09-04T12:30:18.784Z,36.50
2018-09-04T12:32:47.538Z,32.07
2018-09-04T12:35:15.853Z,35.37
2018-09-04T12:37:44.205Z,34.40
2018-09-04T12:40:12.635Z,36.43
2018-09-04T12:42:41.027Z,34.53
2018-09-04T12:45:09.471Z,31.43
2018-09-04T12:47:37.908Z,31.57
2018-09-04T12:50:06.570Z,36.27
2018-09-04T12:52:35.094Z,32.03
2018-09-04T12:55:03.488Z,31.53
2018-09-04T12:57:32.145Z,32.77
2018-09-04T13:00:00.594Z,32.43
2018-09-04T13:02:28.955Z,34.40
2018-09-04T13:04:57.640Z,33.70
2018-09-04T13:07:26.024Z,35.47
2018-09-04T13:09:54.455Z,34.17
2018-09-04T13:12:22.906Z,33.77
2018-09-04T13:14:51.356Z,33.07
2018-09-04T13:17:19.803Z,32.73
2018-09-04T13:19:48.287Z,31.80
2018-09-04T13:22:16.963Z,31.00
2018-09-04T13:24:45.670Z,31.10
2018-09-04T13:27:14.064Z,30.70
2018-09-04T13:29:42.485Z,28.63
2018-09-04T13:32:11.212Z,33.77
2018-09-04T13:34:39.672Z,31.57
2018-09-04T13:37:08.566Z,32.73
2018-09-04T13:39:36.926Z,33.27
2018-09-04T13:42:05.338Z,31.50
2018-09-04T13:44:33.767Z,34.47
2018-09-04T13:47:02.135Z,31.90
2018-09-04T13:49:30.922Z,31.07
2018-09-04T13:51:59.424Z,34.73
2018-09-04T13:54:27.931Z,31.77
2018-09-04T13:56:56.408Z,29.87
2018-09-04T13:59:24.774Z,28.40
2018-09-04T14:01:53.147Z,28.50
2018-09-04T14:04:21.666Z,27.00
2018-09-04T14:06:50.248Z,29.17
2018-09-04T14:09:18.726Z,27.17
2018-09-04T14:11:47.408Z,26.17
2018-09-04T14:14:15.866Z,25.77
2018-09-04T14:16:44.284Z,24.63
2018-09-04T14:19:12.740Z,26.50
2018-09-04T14:21:41.226Z,25.10
2018-09-04T14:24:09.668Z,23.30
2018-09-04T14:26:38.098Z,23.03
2018-09-04T14:29:07.041Z,23.80
2018-09-04T14:31:35.107Z,22.33
2018-09-04T14:34:03.522Z,22.93
2018-09-04T14:36:32.140Z,20.00
2018-09-04T14:39:00.399Z,21.20
2018-09-04T14:41:28.865Z,20.57
2018-09-04T14:43:57.251Z,19.87
2018-09-04T14:46:58.778Z,21.00
2018-09-04T14:49:27.470Z,19.87
2018-09-04T14:51:56.225Z,19.60
2018-09-04T14:54:24.664Z,21.17
2018-09-04T14:56:53.329Z,23.13
2018-09-04T14:59:22.118Z,22.93
2018-09-04T15:01:50.791Z,21.00
2018-09-04T15:04:19.529Z,18.97
2018-09-04T15:06:48.295Z,19.87
2018-09-04T15:09:16.963Z,21.83
2018-09-04T15:11:45.644Z,21.27
2018-09-04T15:14:14.093Z,22.73
2018-09-04T15:16:42.467Z,24.20
2018-09-04T15:19:10.988Z,23.87
2018-09-04T15:21:39.416Z,23.93
2018-09-04T15:24:07.817Z,23.73
2018-09-04T15:26:36.346Z,24.07
2018-09-04T15:29:04.846Z,25.17
2018-09-04T15:31:33.515Z,22.33
2018-09-04T15:34:01.871Z,22.63
2018-09-04T15:36:30.296Z,20.20
2018-09-04T15:38:58.666Z,21.80
2018-09-04T15:41:27.087Z,24.70
2018-09-04T15:43:55.482Z,25.73
2018-09-04T15:46:23.852Z,23.87
2018-09-04T15:48:57.758Z,25.13
2018-09-04T15:51:26.168Z,23.23
2018-09-04T15:53:54.527Z,25.10
2018-09-04T15:56:22.892Z,24.17
2018-09-04T15:58:51.276Z,24.77
2018-09-04T16:01:19.618Z,22.10
2018-09-04T16:03:48.027Z,25.13
2018-09-04T16:06:16.453Z,24.67
2018-09-04T16:08:45.206Z,24.00
2018-09-04T16:11:14.261Z,23.17
2018-09-04T16:13:42.657Z,24.17
2018-09-04T16:16:11.450Z,26.33
2018-09-04T16:18:40.089Z,21.63
2018-09-04T16:21:09.948Z,22.50
2018-09-04T16:23:38.312Z,26.60
2018-09-04T16:26:06.797Z,23.80
2018-09-04T16:28:35.693Z,24.13
2018-09-04T16:31:04.127Z,27.33
2018-09-04T16:33:33.429Z,24.37
2018-09-04T16:36:01.819Z,23.30
2018-09-04T16:38:30.229Z,23.43
2018-09-04T16:40:58.736Z,22.03
2018-09-04T16:43:27.157Z,23.37
2018-09-04T16:45:55.704Z,24.63
2018-09-04T16:48:24.126Z,24.37
2018-09-04T16:50:52.560Z,25.77
2018-09-04T16:53:21.346Z,22.77
2018-09-04T16:55:50.009Z,25.13
2018-09-04T16:58:18.387Z,24.77
2018-09-04T17:00:47.101Z,28.60
2018-09-04T17:03:15.606Z,30.57
2018-09-04T17:05:43.981Z,28.53
2018-09-04T17:08:13.729Z,25.47
2018-09-04T17:10:43.023Z,24.27
2018-09-04T17:13:11.791Z,23.10
2018-09-04T17:15:40.230Z,22.30
2018-09-04T17:18:08.700Z,21.73
2018-09-04T17:20:37.318Z,21.87
2018-09-04T17:23:07.668Z,21.00
2018-09-04T17:25:36.623Z,20.63
2018-09-04T17:28:05.097Z,19.80
2018-09-04T17:30:33.527Z,19.73
2018-09-04T17:33:01.892Z,18.47
2018-09-04T17:35:30.334Z,19.13
2018-09-04T17:37:59.367Z,18.23
2018-09-04T17:40:27.825Z,18.40
2018-09-04T17:42:57.184Z,18.53
2018-09-04T17:45:26.469Z,17.43
2018-09-04T17:47:57.079Z,17.37
2018-09-04T17:50:26.052Z,17.43
2018-09-04T17:52:55.065Z,19.43
2018-09-04T17:55:24.214Z,19.43
2018-09-04T17:57:55.003Z,20.13
2018-09-04T18:00:24.209Z,19.70
2018-09-04T18:02:53.147Z,19.83
2018-09-04T18:05:22.141Z,19.23
2018-09-04T18:07:52.615Z,20.13
2018-09-04T18:10:21.821Z,20.23
2018-09-04T18:12:51.003Z,18.57
2018-09-04T18:15:20.696Z,19.87
2018-09-04T18:17:49.766Z,20.73
2018-09-04T18:20:18.176Z,20.67
2018-09-04T18:22:46.635Z,20.07
2018-09-04T18:25:14.986Z,20.10
2018-09-04T18:27:43.728Z,19.43
2018-09-04T18:30:12.110Z,20.60
2018-09-04T18:32:40.552Z,20.30
2018-09-04T18:35:09.142Z,19.13
2018-09-04T18:37:37.577Z,18.23
2018-09-04T18:40:06.033Z,20.10
2018-09-04T18:42:34.411Z,18.93
2018-09-04T18:45:02.888Z,19.60
2018-09-04T18:47:31.468Z,18.87
2018-09-04T18:49:59.881Z,18.30
2018-09-04T18:52:28.293Z,19.43
2018-09-04T18:54:56.965Z,19.80
2018-09-04T18:57:25.521Z,20.10
2018-09-04T18:59:54.221Z,19.47
2018-09-04T19:02:22.840Z,21.33
2018-09-04T19:04:51.537Z,19.17
2018-09-04T19:07:20.001Z,20.03
2018-09-04T19:09:48.495Z,19.37
2018-09-04T19:12:16.996Z,20.80
2018-09-04T19:14:45.660Z,19.50
2018-09-04T19:17:14.126Z,21.73
2018-09-04T19:19:42.853Z,22.33
2018-09-04T19:22:12.015Z,21.60
2018-09-04T19:24:40.508Z,22.90
2018-09-04T19:27:09.608Z,21.10
2018-09-04T19:29:38.814Z,22.87
2018-09-04T19:32:07.925Z,22.93
2018-09-04T19:34:36.325Z,21.53
2018-09-04T19:37:04.724Z,20.70
2018-09-04T19:39:33.208Z,21.70
2018-09-04T19:42:01.594Z,21.30
2018-09-04T19:44:30.017Z,21.00
2018-09-04T19:46:58.550Z,22.17
2018-09-04T19:49:28.699Z,22.00
2018-09-04T19:51:58.667Z,21.97
2018-09-04T19:54:27.197Z,22.60
2018-09-04T19:56:55.644Z,21.50
2018-09-04T19:59:24.136Z,21.23
2018-09-04T20:01:52.635Z,21.83
2018-09-04T20:04:21.091Z,21.93
2018-09-04T20:06:49.585Z,21.07
2018-09-04T20:09:18.000Z,22.27
2018-09-04T20:11:46.459Z,22.53
2018-09-04T20:14:15.033Z,22.00
2018-09-04T20:16:43.455Z,22.70
2018-09-04T20:19:11.966Z,23.30
2018-09-04T20:21:40.501Z,23.20
2018-09-04T20:24:08.899Z,23.33
2018-09-04T20:26:37.318Z,23.20
2018-09-04T20:29:05.839Z,23.10
2018-09-04T20:31:34.487Z,23.43
2018-09-04T20:34:03.208Z,22.43
2018-09-04T20:36:31.553Z,24.60
2018-09-04T20:38:59.970Z,23.43
2018-09-04T20:41:28.396Z,24.17
2018-09-04T20:43:56.857Z,23.53
2018-09-04T20:46:25.255Z,24.37
2018-09-04T20:48:53.718Z,23.17
2018-09-04T20:51:22.142Z,24.27
2018-09-04T20:53:50.645Z,24.27
2018-09-04T20:56:19.100Z,24.87
2018-09-04T20:58:59.116Z,24.87
2018-09-04T21:01:38.872Z,24.73
2018-09-04T21:04:18.470Z,26.07
2018-09-04T21:06:51.100Z,25.40
2018-09-04T21:09:28.421Z,25.27
2018-09-04T21:11:56.828Z,25.60
2018-09-04T21:14:25.337Z,25.80
2018-09-04T21:18:23.176Z,25.97
2018-09-04T21:20:51.556Z,26.70
2018-09-04T21:23:19.985Z,28.07
2018-09-04T21:25:48.473Z,27.73
2018-09-04T21:28:16.924Z,28.20
2018-09-04T21:30:45.333Z,27.27
2018-09-04T21:33:14.193Z,26.03
2018-09-04T21:35:42.517Z,26.67
2018-09-04T21:38:10.918Z,27.40
2018-09-04T21:40:39.389Z,27.23
2018-09-04T21:43:08.040Z,27.73
2018-09-04T21:45:36.796Z,27.93
2018-09-04T21:48:05.193Z,26.77
2018-09-04T21:50:33.584Z,27.80
2018-09-04T21:53:02.058Z,28.10
2018-09-04T21:55:30.502Z,28.10
2018-09-04T21:57:58.892Z,26.70
2018-09-04T22:00:28.328Z,27.40
2018-09-04T22:02:57.804Z,26.33
2018-09-04T22:05:26.859Z,26.13
2018-09-04T22:07:56.687Z,28.20
2018-09-04T22:10:25.773Z,28.10
2018-09-04T22:12:54.161Z,30.00
2018-09-04T22:15:23.166Z,29.67
2018-09-04T22:17:51.589Z,29.23
2018-09-04T22:20:19.965Z,28.97
2018-09-04T22:22:48.352Z,28.23
2018-09-04T22:25:16.781Z,27.87
2018-09-04T22:27:45.174Z,27.83
2018-09-04T22:30:15.262Z,28.40
2018-09-04T22:32:43.671Z,27.03
2018-09-04T22:35:12.374Z,28.77
2018-09-04T22:37:40.931Z,27.03
2018-09-04T22:40:09.556Z,29.63
2018-09-04T22:42:41.230Z,29.77
2018-09-04T22:45:09.871Z,28.97
2018-09-04T22:47:39.852Z,28.83
2018-09-04T22:50:13.730Z,30.43
2018-09-04T22:52:42.435Z,29.23
2018-09-04T22:55:12.822Z,31.57
2018-09-04T22:57:42.138Z,31.63
2018-09-04T23:00:11.436Z,33.07
2018-09-04T23:02:39.787Z,35.50
2018-09-04T23:05:08.325Z,33.57
2018-09-04T23:07:36.648Z,34.97
2018-09-04T23:16:51.852Z,40.20
2018-09-04T23:19:20.269Z,41.33
2018-09-04T23:21:48.659Z,45.67
2018-09-04T23:24:17.075Z,44.87
2018-09-04T23:26:45.393Z,45.93
2018-09-04T23:29:13.742Z,46.63
2018-09-04T23:31:42.132Z,50.60
2018-09-04T23:34:10.513Z,52.03
2018-09-04T23:36:41.438Z,50.07
2018-09-04T23:39:09.932Z,49.23
2018-09-04T23:41:38.424Z,50.33
2018-09-04T23:44:06.909Z,53.10
2018-09-04T23:46:35.357Z,46.70
2018-09-04T23:49:03.869Z,47.23
2018-09-04T23:51:32.572Z,47.30
2018-09-04T23:54:01.275Z,49.27
2018-09-04T23:56:29.628Z,46.53
2018-09-04T23:58:58.021Z,48.73
